sensor_id;sensor_type;location;lat;lon;timestamp;P1;durP1;ratioP1;P2;durP2;ratioP2
2624;SDS011;1322;53.256;10.386;2023-08-12T00:01:31;6.63;;;4.00;;
2624;SDS011;1322;53.256;10.386;2023-08-12T00:03:57;7.53;;;3.43;;
2624;SDS011;1322;53.256;10.386;2023-08-12T00:06:22;3.67;;;3.30;;
2624;SDS011;1322;53.256;10.386;2023-08-12T00:08:48;10.83;;;4.73;;
2624;SDS011;1322;53.256;10.386;2023-08-12T00:11:14;4.77;;;3.30;;
2624;SDS011;1322;53.256;10.386;2023-08-12T00:13:39;4.90;;;3.03;;
2624;SDS011;1322;53.256;10.386;2023-08-12T00:16:05;4.90;;;3.27;;
2624;SDS011;1322;53.256;10.386;2023-08-12T00:18:31;4.33;;;3.03;;
2624;SDS011;1322;53.256;10.386;2023-08-12T00:21:03;5.37;;;2.50;;
2624;SDS011;1322;53.256;10.386;2023-08-12T00:23:32;3.67;;;2.80;;
2624;SDS011;1322;53.256;10.386;2023-08-12T00:26:00;7.03;;;3.33;;
2624;SDS011;1322;53.256;10.386;2023-08-12T00:28:25;4.60;;;2.80;;
2624;SDS011;1322;53.256;10.386;2023-08-12T00:30:51;4.40;;;3.37;;
2624;SDS011;1322;53.256;10.386;2023-08-12T00:33:17;7.60;;;3.33;;
2624;SDS011;1322;53.256;10.386;2023-08-12T00:35:43;5.80;;;4.00;;
2624;SDS011;1322;53.256;10.386;2023-08-12T00:38:09;5.03;;;2.90;;
2624;SDS011;1322;53.256;10.386;2023-08-12T00:40:34;4.97;;;2.70;;
2624;SDS011;1322;53.256;10.386;2023-08-12T00:43:00;4.67;;;3.00;;
2624;SDS011;1322;53.256;10.386;2023-08-12T00:45:25;8.00;;;3.30;;
2624;SDS011;1322;53.256;10.386;2023-08-12T00:47:52;8.07;;;3.40;;
2624;SDS011;1322;53.256;10.386;2023-08-12T00:50:18;4.23;;;3.50;;
2624;SDS011;1322;53.256;10.386;2023-08-12T00:52:44;4.40;;;3.00;;
2624;SDS011;1322;53.256;10.386;2023-08-12T00:55:10;4.23;;;3.10;;
2624;SDS011;1322;53.256;10.386;2023-08-12T00:57:36;3.57;;;3.07;;
2624;SDS011;1322;53.256;10.386;2023-08-12T01:00:02;3.97;;;3.40;;
2624;SDS011;1322;53.256;10.386;2023-08-12T01:02:29;5.33;;;2.93;;
2624;SDS011;1322;53.256;10.386;2023-08-12T01:04:54;4.77;;;2.90;;
2624;SDS011;1322;53.256;10.386;2023-08-12T01:07:20;4.90;;;2.90;;
2624;SDS011;1322;53.256;10.386;2023-08-12T01:09:46;5.47;;;2.97;;
2624;SDS011;1322;53.256;10.386;2023-08-12T01:12:13;3.30;;;3.00;;
2624;SDS011;1322;53.256;10.386;2023-08-12T01:17:16;4.80;;;2.97;;
2624;SDS011;1322;53.256;10.386;2023-08-12T01:19:42;3.17;;;2.87;;
2624;SDS011;1322;53.256;10.386;2023-08-12T01:22:10;5.20;;;2.50;;
2624;SDS011;1322;53.256;10.386;2023-08-12T01:24:37;8.77;;;4.23;;
2624;SDS011;1322;53.256;10.386;2023-08-12T01:27:05;4.00;;;3.00;;
2624;SDS011;1322;53.256;10.386;2023-08-12T01:29:32;6.33;;;3.07;;
2624;SDS011;1322;53.256;10.386;2023-08-12T01:32:02;4.03;;;3.40;;
2624;SDS011;1322;53.256;10.386;2023-08-12T01:34:50;3.70;;;3.30;;
2624;SDS011;1322;53.256;10.386;2023-08-12T01:37:25;6.10;;;3.63;;
2624;SDS011;1322;53.256;10.386;2023-08-12T01:39:53;4.20;;;2.73;;
2624;SDS011;1322;53.256;10.386;2023-08-12T01:42:21;4.07;;;3.07;;
2624;SDS011;1322;53.256;10.386;2023-08-12T01:44:49;7.40;;;3.30;;
2624;SDS011;1322;53.256;10.386;2023-08-12T01:47:15;6.10;;;3.30;;
2624;SDS011;1322;53.256;10.386;2023-08-12T01:49:41;3.77;;;3.37;;
2624;SDS011;1322;53.256;10.386;2023-08-12T01:52:06;4.93;;;3.33;;
2624;SDS011;1322;53.256;10.386;2023-08-12T01:54:33;4.73;;;3.10;;
2624;SDS011;1322;53.256;10.386;2023-08-12T01:57:03;8.90;;;3.53;;
2624;SDS011;1322;53.256;10.386;2023-08-12T01:59:33;3.90;;;2.80;;
2624;SDS011;1322;53.256;10.386;2023-08-12T02:01:59;3.80;;;3.23;;
2624;SDS011;1322;53.256;10.386;2023-08-12T02:04:25;8.90;;;3.80;;
2624;SDS011;1322;53.256;10.386;2023-08-12T02:06:51;4.20;;;3.17;;
2624;SDS011;1322;53.256;10.386;2023-08-12T02:09:17;3.60;;;2.90;;
2624;SDS011;1322;53.256;10.386;2023-08-12T02:11:43;3.93;;;3.00;;
2624;SDS011;1322;53.256;10.386;2023-08-12T02:14:08;3.93;;;3.63;;
2624;SDS011;1322;53.256;10.386;2023-08-12T02:16:34;4.33;;;2.90;;
2624;SDS011;1322;53.256;10.386;2023-08-12T02:19:00;4.63;;;3.23;;
2624;SDS011;1322;53.256;10.386;2023-08-12T02:21:25;4.43;;;3.53;;
2624;SDS011;1322;53.256;10.386;2023-08-12T02:23:51;5.10;;;3.20;;
2624;SDS011;1322;53.256;10.386;2023-08-12T02:26:16;3.73;;;2.90;;
2624;SDS011;1322;53.256;10.386;2023-08-12T02:28:42;9.20;;;2.87;;
2624;SDS011;1322;53.256;10.386;2023-08-12T02:31:08;4.00;;;2.90;;
2624;SDS011;1322;53.256;10.386;2023-08-12T02:33:33;3.30;;;3.00;;
2624;SDS011;1322;53.256;10.386;2023-08-12T02:35:59;4.63;;;2.97;;
2624;SDS011;1322;53.256;10.386;2023-08-12T02:38:24;3.23;;;2.93;;
2624;SDS011;1322;53.256;10.386;2023-08-12T02:40:50;5.90;;;3.67;;
2624;SDS011;1322;53.256;10.386;2023-08-12T02:43:16;4.90;;;3.43;;
2624;SDS011;1322;53.256;10.386;2023-08-12T02:45:42;5.87;;;3.50;;
2624;SDS011;1322;53.256;10.386;2023-08-12T02:48:09;5.93;;;3.53;;
2624;SDS011;1322;53.256;10.386;2023-08-12T02:50:35;4.47;;;3.97;;
2624;SDS011;1322;53.256;10.386;2023-08-12T02:53:01;8.23;;;3.10;;
2624;SDS011;1322;53.256;10.386;2023-08-12T02:55:27;8.40;;;3.10;;
2624;SDS011;1322;53.256;10.386;2023-08-12T02:57:53;3.50;;;3.20;;
2624;SDS011;1322;53.256;10.386;2023-08-12T03:00:19;6.10;;;3.40;;
2624;SDS011;1322;53.256;10.386;2023-08-12T03:02:45;11.00;;;4.07;;
2624;SDS011;1322;53.256;10.386;2023-08-12T03:05:11;4.93;;;3.00;;
2624;SDS011;1322;53.256;10.386;2023-08-12T03:07:36;6.73;;;4.30;;
2624;SDS011;1322;53.256;10.386;2023-08-12T03:10:02;4.33;;;3.30;;
2624;SDS011;1322;53.256;10.386;2023-08-12T03:12:28;4.33;;;3.50;;
2624;SDS011;1322;53.256;10.386;2023-08-12T03:14:53;4.50;;;3.50;;
2624;SDS011;1322;53.256;10.386;2023-08-12T03:17:19;4.37;;;2.93;;
2624;SDS011;1322;53.256;10.386;2023-08-12T03:19:44;4.20;;;3.17;;
2624;SDS011;1322;53.256;10.386;2023-08-12T03:22:10;3.43;;;2.97;;
2624;SDS011;1322;53.256;10.386;2023-08-12T03:24:36;4.33;;;3.30;;
2624;SDS011;1322;53.256;10.386;2023-08-12T03:27:01;5.17;;;3.20;;
2624;SDS011;1322;53.256;10.386;2023-08-12T03:29:27;4.97;;;3.50;;
2624;SDS011;1322;53.256;10.386;2023-08-12T03:31:52;3.87;;;3.30;;
2624;SDS011;1322;53.256;10.386;2023-08-12T03:34:18;14.97;;;3.90;;
2624;SDS011;1322;53.256;10.386;2023-08-12T03:36:44;5.40;;;3.50;;
2624;SDS011;1322;53.256;10.386;2023-08-12T03:39:11;6.10;;;4.30;;
2624;SDS011;1322;53.256;10.386;2023-08-12T03:41:36;8.93;;;4.20;;
2624;SDS011;1322;53.256;10.386;2023-08-12T03:44:02;5.33;;;3.33;;
2624;SDS011;1322;53.256;10.386;2023-08-12T03:46:28;6.53;;;3.60;;
2624;SDS011;1322;53.256;10.386;2023-08-12T03:48:53;4.17;;;3.50;;
2624;SDS011;1322;53.256;10.386;2023-08-12T03:51:19;8.50;;;3.50;;
2624;SDS011;1322;53.256;10.386;2023-08-12T03:53:44;5.07;;;3.30;;
2624;SDS011;1322;53.256;10.386;2023-08-12T03:56:10;3.80;;;3.50;;
2624;SDS011;1322;53.256;10.386;2023-08-12T03:58:39;3.80;;;3.10;;
2624;SDS011;1322;53.256;10.386;2023-08-12T04:01:06;3.50;;;3.20;;
2624;SDS011;1322;53.256;10.386;2023-08-12T04:03:31;4.40;;;4.00;;
2624;SDS011;1322;53.256;10.386;2023-08-12T04:05:57;5.07;;;3.80;;
2624;SDS011;1322;53.256;10.386;2023-08-12T04:08:22;4.90;;;3.53;;
2624;SDS011;1322;53.256;10.386;2023-08-12T04:10:49;3.70;;;3.40;;
2624;SDS011;1322;53.256;10.386;2023-08-12T04:13:15;4.43;;;3.50;;
2624;SDS011;1322;53.256;10.386;2023-08-12T04:15:41;5.77;;;3.97;;
2624;SDS011;1322;53.256;10.386;2023-08-12T04:18:07;4.33;;;3.70;;
2624;SDS011;1322;53.256;10.386;2023-08-12T04:20:33;4.37;;;3.40;;
2624;SDS011;1322;53.256;10.386;2023-08-12T04:22:58;6.30;;;3.70;;
2624;SDS011;1322;53.256;10.386;2023-08-12T04:25:24;5.00;;;3.90;;
2624;SDS011;1322;53.256;10.386;2023-08-12T04:27:50;9.40;;;3.87;;
2624;SDS011;1322;53.256;10.386;2023-08-12T04:30:16;4.97;;;3.20;;
2624;SDS011;1322;53.256;10.386;2023-08-12T04:32:42;3.60;;;3.30;;
2624;SDS011;1322;53.256;10.386;2023-08-12T04:35:08;5.33;;;3.80;;
2624;SDS011;1322;53.256;10.386;2023-08-12T04:37:35;5.00;;;3.73;;
2624;SDS011;1322;53.256;10.386;2023-08-12T04:40:01;4.53;;;3.60;;
2624;SDS011;1322;53.256;10.386;2023-08-12T04:42:29;6.90;;;3.67;;
2624;SDS011;1322;53.256;10.386;2023-08-12T04:44:55;7.50;;;4.40;;
2624;SDS011;1322;53.256;10.386;2023-08-12T04:47:21;6.07;;;4.03;;
2624;SDS011;1322;53.256;10.386;2023-08-12T04:49:47;7.40;;;4.03;;
2624;SDS011;1322;53.256;10.386;2023-08-12T04:52:12;4.60;;;4.03;;
2624;SDS011;1322;53.256;10.386;2023-08-12T04:54:38;6.57;;;4.60;;
2624;SDS011;1322;53.256;10.386;2023-08-12T04:57:04;6.83;;;3.80;;
2624;SDS011;1322;53.256;10.386;2023-08-12T04:59:30;5.60;;;3.93;;
2624;SDS011;1322;53.256;10.386;2023-08-12T05:01:56;7.20;;;4.30;;
2624;SDS011;1322;53.256;10.386;2023-08-12T05:04:22;6.60;;;4.30;;
2624;SDS011;1322;53.256;10.386;2023-08-12T05:06:47;6.60;;;3.70;;
2624;SDS011;1322;53.256;10.386;2023-08-12T05:09:13;9.13;;;3.87;;
2624;SDS011;1322;53.256;10.386;2023-08-12T05:11:39;6.03;;;3.67;;
2624;SDS011;1322;53.256;10.386;2023-08-12T05:14:05;5.20;;;3.80;;
2624;SDS011;1322;53.256;10.386;2023-08-12T05:16:30;9.07;;;4.47;;
2624;SDS011;1322;53.256;10.386;2023-08-12T05:18:56;4.30;;;3.83;;
2624;SDS011;1322;53.256;10.386;2023-08-12T05:21:21;6.40;;;3.67;;
2624;SDS011;1322;53.256;10.386;2023-08-12T05:23:48;4.33;;;3.93;;
2624;SDS011;1322;53.256;10.386;2023-08-12T05:26:13;5.93;;;4.00;;
2624;SDS011;1322;53.256;10.386;2023-08-12T05:28:39;4.60;;;3.83;;
2624;SDS011;1322;53.256;10.386;2023-08-12T05:31:04;4.50;;;4.10;;
2624;SDS011;1322;53.256;10.386;2023-08-12T05:33:30;24.57;;;17.90;;
2624;SDS011;1322;53.256;10.386;2023-08-12T05:35:56;8.63;;;7.00;;
2624;SDS011;1322;53.256;10.386;2023-08-12T05:38:22;14.53;;;12.17;;
2624;SDS011;1322;53.256;10.386;2023-08-12T05:40:47;10.73;;;9.63;;
2624;SDS011;1322;53.256;10.386;2023-08-12T05:43:13;5.50;;;4.33;;
2624;SDS011;1322;53.256;10.386;2023-08-12T05:45:39;4.20;;;3.80;;
2624;SDS011;1322;53.256;10.386;2023-08-12T05:48:04;10.77;;;3.80;;
2624;SDS011;1322;53.256;10.386;2023-08-12T05:50:33;4.90;;;4.40;;
2624;SDS011;1322;53.256;10.386;2023-08-12T05:52:58;10.23;;;3.87;;
2624;SDS011;1322;53.256;10.386;2023-08-12T05:55:24;4.23;;;3.60;;
2624;SDS011;1322;53.256;10.386;2023-08-12T05:57:50;4.57;;;3.87;;
2624;SDS011;1322;53.256;10.386;2023-08-12T06:00:15;4.80;;;3.87;;
2624;SDS011;1322;53.256;10.386;2023-08-12T06:02:41;5.00;;;3.83;;
2624;SDS011;1322;53.256;10.386;2023-08-12T06:05:07;6.47;;;4.30;;
2624;SDS011;1322;53.256;10.386;2023-08-12T06:07:33;5.87;;;3.90;;
2624;SDS011;1322;53.256;10.386;2023-08-12T06:09:59;6.57;;;4.30;;
2624;SDS011;1322;53.256;10.386;2023-08-12T06:12:25;5.30;;;3.77;;
2624;SDS011;1322;53.256;10.386;2023-08-12T06:14:51;6.20;;;3.80;;
2624;SDS011;1322;53.256;10.386;2023-08-12T06:17:17;8.10;;;4.17;;
2624;SDS011;1322;53.256;10.386;2023-08-12T06:19:42;8.43;;;4.00;;
2624;SDS011;1322;53.256;10.386;2023-08-12T06:22:08;5.23;;;4.23;;
2624;SDS011;1322;53.256;10.386;2023-08-12T06:24:33;8.30;;;4.20;;
2624;SDS011;1322;53.256;10.386;2023-08-12T06:26:59;5.50;;;3.53;;
2624;SDS011;1322;53.256;10.386;2023-08-12T06:29:25;12.17;;;9.43;;
2624;SDS011;1322;53.256;10.386;2023-08-12T06:31:51;19.07;;;14.97;;
2624;SDS011;1322;53.256;10.386;2023-08-12T06:34:17;12.60;;;8.30;;
2624;SDS011;1322;53.256;10.386;2023-08-12T06:36:43;9.40;;;5.03;;
2624;SDS011;1322;53.256;10.386;2023-08-12T06:39:09;10.53;;;5.33;;
2624;SDS011;1322;53.256;10.386;2023-08-12T06:41:34;5.80;;;5.00;;
2624;SDS011;1322;53.256;10.386;2023-08-12T06:44:00;5.93;;;4.50;;
2624;SDS011;1322;53.256;10.386;2023-08-12T06:46:26;6.63;;;6.03;;
2624;SDS011;1322;53.256;10.386;2023-08-12T06:48:51;5.33;;;4.73;;
2624;SDS011;1322;53.256;10.386;2023-08-12T06:51:17;8.00;;;4.20;;
2624;SDS011;1322;53.256;10.386;2023-08-12T06:53:43;9.13;;;4.57;;
2624;SDS011;1322;53.256;10.386;2023-08-12T06:56:08;6.07;;;4.60;;
2624;SDS011;1322;53.256;10.386;2023-08-12T06:58:34;5.63;;;4.53;;
2624;SDS011;1322;53.256;10.386;2023-08-12T07:01:00;7.87;;;4.73;;
2624;SDS011;1322;53.256;10.386;2023-08-12T07:03:25;5.50;;;4.93;;
2624;SDS011;1322;53.256;10.386;2023-08-12T07:05:52;6.67;;;5.40;;
2624;SDS011;1322;53.256;10.386;2023-08-12T07:08:18;7.30;;;5.20;;
2624;SDS011;1322;53.256;10.386;2023-08-12T07:10:44;23.43;;;17.67;;
2624;SDS011;1322;53.256;10.386;2023-08-12T07:13:09;14.87;;;11.77;;
2624;SDS011;1322;53.256;10.386;2023-08-12T07:15:35;11.50;;;9.10;;
2624;SDS011;1322;53.256;10.386;2023-08-12T07:18:01;8.03;;;5.90;;
2624;SDS011;1322;53.256;10.386;2023-08-12T07:20:27;7.67;;;5.27;;
2624;SDS011;1322;53.256;10.386;2023-08-12T07:22:52;6.10;;;5.50;;
2624;SDS011;1322;53.256;10.386;2023-08-12T07:25:18;7.77;;;5.93;;
2624;SDS011;1322;53.256;10.386;2023-08-12T07:27:44;5.80;;;5.03;;
2624;SDS011;1322;53.256;10.386;2023-08-12T07:30:09;11.43;;;5.80;;
2624;SDS011;1322;53.256;10.386;2023-08-12T07:32:38;5.87;;;5.37;;
2624;SDS011;1322;53.256;10.386;2023-08-12T07:35:04;7.70;;;6.77;;
2624;SDS011;1322;53.256;10.386;2023-08-12T07:37:31;10.80;;;7.67;;
2624;SDS011;1322;53.256;10.386;2023-08-12T07:39:57;14.53;;;9.20;;
2624;SDS011;1322;53.256;10.386;2023-08-12T07:42:22;7.10;;;6.40;;
2624;SDS011;1322;53.256;10.386;2023-08-12T07:44:48;13.13;;;6.90;;
2624;SDS011;1322;53.256;10.386;2023-08-12T07:47:14;7.10;;;5.30;;
2624;SDS011;1322;53.256;10.386;2023-08-12T07:49:40;7.60;;;5.53;;
2624;SDS011;1322;53.256;10.386;2023-08-12T07:52:06;8.43;;;6.30;;
2624;SDS011;1322;53.256;10.386;2023-08-12T07:54:32;7.50;;;6.43;;
2624;SDS011;1322;53.256;10.386;2023-08-12T07:56:57;9.03;;;5.70;;
2624;SDS011;1322;53.256;10.386;2023-08-12T07:59:23;7.63;;;6.00;;
2624;SDS011;1322;53.256;10.386;2023-08-12T08:01:48;7.90;;;5.80;;
2624;SDS011;1322;53.256;10.386;2023-08-12T08:04:14;6.50;;;5.80;;
2624;SDS011;1322;53.256;10.386;2023-08-12T08:06:40;8.63;;;7.13;;
2624;SDS011;1322;53.256;10.386;2023-08-12T08:09:05;7.80;;;7.03;;
2624;SDS011;1322;53.256;10.386;2023-08-12T08:11:31;8.60;;;6.17;;
2624;SDS011;1322;53.256;10.386;2023-08-12T08:13:59;9.63;;;7.43;;
2624;SDS011;1322;53.256;10.386;2023-08-12T08:16:24;10.57;;;8.37;;
2624;SDS011;1322;53.256;10.386;2023-08-12T08:18:50;8.30;;;7.43;;
2624;SDS011;1322;53.256;10.386;2023-08-12T08:21:16;7.43;;;6.57;;
2624;SDS011;1322;53.256;10.386;2023-08-12T08:23:41;7.83;;;6.67;;
2624;SDS011;1322;53.256;10.386;2023-08-12T08:26:08;8.37;;;7.33;;
2624;SDS011;1322;53.256;10.386;2023-08-12T08:28:34;8.60;;;7.67;;
2624;SDS011;1322;53.256;10.386;2023-08-12T08:30:59;8.27;;;7.20;;
2624;SDS011;1322;53.256;10.386;2023-08-12T08:33:25;9.07;;;8.17;;
2624;SDS011;1322;53.256;10.386;2023-08-12T08:35:51;8.10;;;7.23;;
2624;SDS011;1322;53.256;10.386;2023-08-12T08:38:18;14.70;;;7.50;;
2624;SDS011;1322;53.256;10.386;2023-08-12T08:40:44;8.60;;;7.80;;
2624;SDS011;1322;53.256;10.386;2023-08-12T08:43:10;7.97;;;7.13;;
2624;SDS011;1322;53.256;10.386;2023-08-12T08:45:45;11.30;;;7.77;;
2624;SDS011;1322;53.256;10.386;2023-08-12T08:48:11;10.83;;;7.27;;
2624;SDS011;1322;53.256;10.386;2023-08-12T08:50:37;8.33;;;7.43;;
2624;SDS011;1322;53.256;10.386;2023-08-12T08:53:06;9.27;;;8.13;;
2624;SDS011;1322;53.256;10.386;2023-08-12T08:55:32;8.53;;;7.73;;
2624;SDS011;1322;53.256;10.386;2023-08-12T08:57:57;8.80;;;8.00;;
2624;SDS011;1322;53.256;10.386;2023-08-12T09:00:24;9.40;;;7.87;;
2624;SDS011;1322;53.256;10.386;2023-08-12T09:02:50;8.37;;;7.53;;
2624;SDS011;1322;53.256;10.386;2023-08-12T09:05:16;11.40;;;7.87;;
2624;SDS011;1322;53.256;10.386;2023-08-12T09:07:42;8.47;;;7.57;;
2624;SDS011;1322;53.256;10.386;2023-08-12T09:10:10;9.20;;;7.43;;
2624;SDS011;1322;53.256;10.386;2023-08-12T09:12:36;10.53;;;8.00;;
2624;SDS011;1322;53.256;10.386;2023-08-12T09:15:02;9.00;;;8.10;;
2624;SDS011;1322;53.256;10.386;2023-08-12T09:17:29;8.83;;;7.00;;
2624;SDS011;1322;53.256;10.386;2023-08-12T09:19:55;10.80;;;7.70;;
2624;SDS011;1322;53.256;10.386;2023-08-12T09:22:20;8.70;;;7.53;;
2624;SDS011;1322;53.256;10.386;2023-08-12T09:24:50;7.73;;;6.93;;
2624;SDS011;1322;53.256;10.386;2023-08-12T09:27:21;9.10;;;7.50;;
2624;SDS011;1322;53.256;10.386;2023-08-12T09:29:46;8.20;;;7.00;;
2624;SDS011;1322;53.256;10.386;2023-08-12T09:32:12;12.23;;;7.40;;
2624;SDS011;1322;53.256;10.386;2023-08-12T09:34:49;8.87;;;6.70;;
2624;SDS011;1322;53.256;10.386;2023-08-12T09:37:16;9.10;;;6.90;;
2624;SDS011;1322;53.256;10.386;2023-08-12T09:39:43;8.70;;;7.80;;
2624;SDS011;1322;53.256;10.386;2023-08-12T09:42:10;8.33;;;6.73;;
2624;SDS011;1322;53.256;10.386;2023-08-12T09:44:37;6.90;;;6.30;;
2624;SDS011;1322;53.256;10.386;2023-08-12T09:47:03;9.73;;;8.33;;
2624;SDS011;1322;53.256;10.386;2023-08-12T09:49:30;9.80;;;6.50;;
2624;SDS011;1322;53.256;10.386;2023-08-12T09:51:56;12.07;;;7.33;;
2624;SDS011;1322;53.256;10.386;2023-08-12T09:54:22;10.33;;;7.50;;
2624;SDS011;1322;53.256;10.386;2023-08-12T09:56:52;7.93;;;7.00;;
2624;SDS011;1322;53.256;10.386;2023-08-12T09:59:22;9.07;;;8.13;;
2624;SDS011;1322;53.256;10.386;2023-08-12T10:01:49;9.77;;;8.00;;
2624;SDS011;1322;53.256;10.386;2023-08-12T10:04:18;10.57;;;8.50;;
2624;SDS011;1322;53.256;10.386;2023-08-12T10:06:47;10.23;;;8.07;;
2624;SDS011;1322;53.256;10.386;2023-08-12T10:09:17;8.90;;;8.00;;
2624;SDS011;1322;53.256;10.386;2023-08-12T10:11:43;10.03;;;7.60;;
2624;SDS011;1322;53.256;10.386;2023-08-12T10:14:11;7.80;;;7.10;;
2624;SDS011;1322;53.256;10.386;2023-08-12T10:16:37;8.30;;;7.40;;
2624;SDS011;1322;53.256;10.386;2023-08-12T10:19:05;8.83;;;7.93;;
2624;SDS011;1322;53.256;10.386;2023-08-12T10:21:31;11.30;;;7.80;;
2624;SDS011;1322;53.256;10.386;2023-08-12T10:23:57;9.00;;;7.95;;
2624;SDS011;1322;53.256;10.386;2023-08-12T10:26:24;9.77;;;7.13;;
2624;SDS011;1322;53.256;10.386;2023-08-12T10:28:50;9.07;;;7.30;;
2624;SDS011;1322;53.256;10.386;2023-08-12T10:31:16;8.87;;;7.10;;
2624;SDS011;1322;53.256;10.386;2023-08-12T10:33:44;10.97;;;7.47;;
2624;SDS011;1322;53.256;10.386;2023-08-12T10:36:13;8.27;;;6.80;;
2624;SDS011;1322;53.256;10.386;2023-08-12T10:38:40;8.17;;;6.93;;
2624;SDS011;1322;53.256;10.386;2023-08-12T10:41:22;7.47;;;6.70;;
2624;SDS011;1322;53.256;10.386;2023-08-12T10:44:09;9.60;;;7.50;;
2624;SDS011;1322;53.256;10.386;2023-08-12T10:46:35;7.40;;;6.23;;
2624;SDS011;1322;53.256;10.386;2023-08-12T10:51:41;8.50;;;7.70;;
2624;SDS011;1322;53.256;10.386;2023-08-12T10:54:22;10.30;;;8.50;;
2624;SDS011;1322;53.256;10.386;2023-08-12T10:57:10;11.77;;;8.17;;
2624;SDS011;1322;53.256;10.386;2023-08-12T11:10:10;7.60;;;6.80;;
2624;SDS011;1322;53.256;10.386;2023-08-12T11:12:38;7.90;;;6.17;;
2624;SDS011;1322;53.256;10.386;2023-08-12T11:15:05;7.87;;;7.07;;
2624;SDS011;1322;53.256;10.386;2023-08-12T11:20:01;10.03;;;7.10;;
2624;SDS011;1322;53.256;10.386;2023-08-12T11:22:35;6.30;;;5.70;;
2624;SDS011;1322;53.256;10.386;2023-08-12T11:25:08;7.73;;;6.93;;
2624;SDS011;1322;53.256;10.386;2023-08-12T11:27:45;8.13;;;6.90;;
2624;SDS011;1322;53.256;10.386;2023-08-12T11:30:21;7.43;;;6.73;;
2624;SDS011;1322;53.256;10.386;2023-08-12T11:32:48;11.30;;;7.90;;
2624;SDS011;1322;53.256;10.386;2023-08-12T11:35:16;12.13;;;6.90;;
2624;SDS011;1322;53.256;10.386;2023-08-12T11:37:47;7.63;;;6.87;;
2624;SDS011;1322;53.256;10.386;2023-08-12T11:40:15;10.03;;;6.30;;
2624;SDS011;1322;53.256;10.386;2023-08-12T11:42:43;10.30;;;7.00;;
2624;SDS011;1322;53.256;10.386;2023-08-12T11:45:11;9.53;;;8.53;;
2624;SDS011;1322;53.256;10.386;2023-08-12T11:47:38;7.33;;;6.57;;
2624;SDS011;1322;53.256;10.386;2023-08-12T11:50:06;10.83;;;6.90;;
2624;SDS011;1322;53.256;10.386;2023-08-12T11:52:33;7.20;;;6.50;;
2624;SDS011;1322;53.256;10.386;2023-08-12T11:55:00;8.80;;;6.20;;
2624;SDS011;1322;53.256;10.386;2023-08-12T11:57:26;8.70;;;7.00;;
2624;SDS011;1322;53.256;10.386;2023-08-12T12:00:02;7.67;;;6.60;;
2624;SDS011;1322;53.256;10.386;2023-08-12T12:02:35;11.10;;;6.80;;
2624;SDS011;1322;53.256;10.386;2023-08-12T12:05:10;8.10;;;6.30;;
2624;SDS011;1322;53.256;10.386;2023-08-12T12:07:36;11.17;;;7.90;;
2624;SDS011;1322;53.256;10.386;2023-08-12T12:10:03;7.50;;;6.67;;
2624;SDS011;1322;53.256;10.386;2023-08-12T12:12:30;8.23;;;7.43;;
2624;SDS011;1322;53.256;10.386;2023-08-12T12:15:01;8.47;;;7.50;;
2624;SDS011;1322;53.256;10.386;2023-08-12T12:17:28;7.37;;;6.70;;
2624;SDS011;1322;53.256;10.386;2023-08-12T12:19:57;10.10;;;8.47;;
2624;SDS011;1322;53.256;10.386;2023-08-12T12:22:31;11.47;;;6.60;;
2624;SDS011;1322;53.256;10.386;2023-08-12T12:24:58;9.30;;;7.83;;
2624;SDS011;1322;53.256;10.386;2023-08-12T12:27:26;9.60;;;7.63;;
2624;SDS011;1322;53.256;10.386;2023-08-12T12:29:58;10.23;;;7.47;;
2624;SDS011;1322;53.256;10.386;2023-08-12T12:32:25;11.03;;;7.20;;
2624;SDS011;1322;53.256;10.386;2023-08-12T12:34:51;13.20;;;8.13;;
2624;SDS011;1322;53.256;10.386;2023-08-12T12:37:18;8.77;;;7.20;;
2624;SDS011;1322;53.256;10.386;2023-08-12T12:39:44;10.00;;;7.97;;
2624;SDS011;1322;53.256;10.386;2023-08-12T12:42:10;9.50;;;7.80;;
2624;SDS011;1322;53.256;10.386;2023-08-12T12:44:36;13.90;;;7.40;;
2624;SDS011;1322;53.256;10.386;2023-08-12T12:47:02;13.15;;;8.13;;
2624;SDS011;1322;53.256;10.386;2023-08-12T12:49:28;9.93;;;7.82;;
2624;SDS011;1322;53.256;10.386;2023-08-12T12:51:53;9.30;;;8.32;;
2624;SDS011;1322;53.256;10.386;2023-08-12T12:54:19;8.05;;;7.00;;
2624;SDS011;1322;53.256;10.386;2023-08-12T12:56:45;9.13;;;7.10;;
2624;SDS011;1322;53.256;10.386;2023-08-12T12:59:11;9.00;;;6.50;;
2624;SDS011;1322;53.256;10.386;2023-08-12T13:01:36;7.22;;;6.43;;
2624;SDS011;1322;53.256;10.386;2023-08-12T13:04:02;11.68;;;8.20;;
2624;SDS011;1322;53.256;10.386;2023-08-12T13:06:28;8.35;;;7.03;;
2624;SDS011;1322;53.256;10.386;2023-08-12T13:08:54;7.28;;;6.57;;
2624;SDS011;1322;53.256;10.386;2023-08-12T13:11:19;9.98;;;8.95;;
2624;SDS011;1322;53.256;10.386;2023-08-12T13:13:45;12.15;;;10.85;;
2624;SDS011;1322;53.256;10.386;2023-08-12T13:16:11;10.05;;;8.00;;
2624;SDS011;1322;53.256;10.386;2023-08-12T13:18:36;9.05;;;7.38;;
2624;SDS011;1322;53.256;10.386;2023-08-12T13:21:02;7.53;;;6.60;;
2624;SDS011;1322;53.256;10.386;2023-08-12T13:23:28;8.50;;;5.97;;
2624;SDS011;1322;53.256;10.386;2023-08-12T13:25:53;6.90;;;6.20;;
2624;SDS011;1322;53.256;10.386;2023-08-12T13:28:19;8.60;;;6.73;;
2624;SDS011;1322;53.256;10.386;2023-08-12T13:30:45;8.07;;;6.40;;
2624;SDS011;1322;53.256;10.386;2023-08-12T13:33:11;7.17;;;6.47;;
2624;SDS011;1322;53.256;10.386;2023-08-12T13:35:36;8.83;;;5.60;;
2624;SDS011;1322;53.256;10.386;2023-08-12T13:38:02;6.23;;;5.50;;
2624;SDS011;1322;53.256;10.386;2023-08-12T13:40:28;8.23;;;6.50;;
2624;SDS011;1322;53.256;10.386;2023-08-12T13:42:54;6.57;;;5.97;;
2624;SDS011;1322;53.256;10.386;2023-08-12T13:45:20;6.63;;;5.93;;
2624;SDS011;1322;53.256;10.386;2023-08-12T13:47:46;7.20;;;5.90;;
2624;SDS011;1322;53.256;10.386;2023-08-12T13:50:11;6.53;;;5.93;;
2624;SDS011;1322;53.256;10.386;2023-08-12T13:52:38;7.60;;;6.70;;
2624;SDS011;1322;53.256;10.386;2023-08-12T13:55:04;7.73;;;6.50;;
2624;SDS011;1322;53.256;10.386;2023-08-12T13:57:30;7.33;;;6.63;;
2624;SDS011;1322;53.256;10.386;2023-08-12T13:59:56;7.43;;;6.27;;
2624;SDS011;1322;53.256;10.386;2023-08-12T14:02:22;6.17;;;5.57;;
2624;SDS011;1322;53.256;10.386;2023-08-12T14:04:48;7.07;;;5.83;;
2624;SDS011;1322;53.256;10.386;2023-08-12T14:07:14;12.93;;;6.57;;
2624;SDS011;1322;53.256;10.386;2023-08-12T14:09:40;7.20;;;6.03;;
2624;SDS011;1322;53.256;10.386;2023-08-12T14:12:06;6.60;;;5.13;;
2624;SDS011;1322;53.256;10.386;2023-08-12T14:14:32;6.77;;;5.37;;
2624;SDS011;1322;53.256;10.386;2023-08-12T14:16:58;6.07;;;5.57;;
2624;SDS011;1322;53.256;10.386;2023-08-12T14:19:23;6.60;;;5.30;;
2624;SDS011;1322;53.256;10.386;2023-08-12T14:21:49;6.90;;;6.20;;
2624;SDS011;1322;53.256;10.386;2023-08-12T14:24:15;6.47;;;5.70;;
2624;SDS011;1322;53.256;10.386;2023-08-12T14:26:40;7.23;;;6.40;;
2624;SDS011;1322;53.256;10.386;2023-08-12T14:29:08;9.40;;;6.10;;
2624;SDS011;1322;53.256;10.386;2023-08-12T14:31:34;7.53;;;6.83;;
2624;SDS011;1322;53.256;10.386;2023-08-12T14:34:00;10.50;;;7.60;;
2624;SDS011;1322;53.256;10.386;2023-08-12T14:36:26;9.43;;;6.57;;
2624;SDS011;1322;53.256;10.386;2023-08-12T14:38:52;8.37;;;6.93;;
2624;SDS011;1322;53.256;10.386;2023-08-12T14:41:18;9.43;;;7.67;;
2624;SDS011;1322;53.256;10.386;2023-08-12T14:43:44;8.60;;;7.70;;
2624;SDS011;1322;53.256;10.386;2023-08-12T14:46:10;10.80;;;9.80;;
2624;SDS011;1322;53.256;10.386;2023-08-12T14:48:35;10.90;;;9.53;;
2624;SDS011;1322;53.256;10.386;2023-08-12T14:51:01;11.53;;;10.50;;
2624;SDS011;1322;53.256;10.386;2023-08-12T14:53:27;12.97;;;10.87;;
2624;SDS011;1322;53.256;10.386;2023-08-12T14:55:52;29.43;;;26.23;;
2624;SDS011;1322;53.256;10.386;2023-08-12T14:58:18;26.27;;;22.20;;
2624;SDS011;1322;53.256;10.386;2023-08-12T15:00:44;15.93;;;12.53;;
2624;SDS011;1322;53.256;10.386;2023-08-12T15:03:12;9.30;;;8.40;;
2624;SDS011;1322;53.256;10.386;2023-08-12T15:05:39;13.73;;;8.53;;
2624;SDS011;1322;53.256;10.386;2023-08-12T15:08:05;8.43;;;7.53;;
2624;SDS011;1322;53.256;10.386;2023-08-12T15:10:31;10.23;;;8.60;;
2624;SDS011;1322;53.256;10.386;2023-08-12T15:12:56;7.87;;;7.17;;